createdAt,value
2019-05-01T00:07:12.910Z,11.20
2019-05-01T00:21:18.446Z,10.90
2019-05-01T00:23:59.239Z,10.90
2019-05-01T00:26:40.088Z,10.90
2019-05-01T00:29:20.871Z,10.90
2019-05-01T00:32:01.730Z,10.80
2019-05-01T00:34:41.978Z,10.80
2019-05-01T00:37:22.910Z,10.80
2019-05-01T00:40:03.703Z,10.70
2019-05-01T00:42:44.459Z,10.70
2019-05-01T00:45:25.243Z,10.60
2019-05-01T00:48:09.353Z,10.50
2019-05-01T00:50:50.109Z,10.50
2019-05-01T00:53:30.450Z,10.40
2019-05-01T00:59:45.293Z,10.30
2019-05-01T01:02:48.075Z,10.30
2019-05-01T01:05:28.583Z,10.30
2019-05-01T01:08:09.387Z,10.30
2019-05-01T01:10:50.170Z,10.30
2019-05-01T01:13:31.151Z,10.20
2019-05-01T01:16:12.326Z,10.20
2019-05-01T01:18:53.206Z,10.20
2019-05-01T01:21:33.987Z,10.10
2019-05-01T01:27:03.908Z,10.10
2019-05-01T01:29:46.175Z,10.00
2019-05-01T01:35:15.571Z,9.90
2019-05-01T01:49:00.615Z,9.80
2019-05-01T01:51:41.599Z,9.70
2019-05-01T02:17:06.568Z,9.30
2019-05-01T02:19:47.173Z,9.30
2019-05-01T02:22:27.885Z,9.20
2019-05-01T02:25:10.307Z,9.10
2019-05-01T02:28:10.498Z,9.00
2019-05-01T02:33:54.155Z,9.00
2019-05-01T02:36:34.896Z,9.00
2019-05-01T02:39:14.114Z,9.00
2019-05-01T02:42:01.972Z,9.00
2019-05-01T02:44:50.060Z,9.00
2019-05-01T02:47:37.895Z,9.00
2019-05-01T02:50:25.753Z,8.90
2019-05-01T02:53:13.691Z,8.90
2019-05-01T02:56:20.630Z,8.90
2019-05-01T02:59:08.471Z,8.90
2019-05-01T03:01:56.624Z,8.80
2019-05-01T03:04:44.460Z,8.80
2019-05-01T03:07:32.815Z,8.70
2019-05-01T03:10:21.147Z,8.70
2019-05-01T03:13:09.228Z,8.60
2019-05-01T03:15:57.316Z,8.60
2019-05-01T03:24:55.463Z,8.50
2019-05-01T03:27:43.389Z,8.50
2019-05-01T03:30:31.253Z,8.50
2019-05-01T03:33:19.141Z,8.40
2019-05-01T03:36:07.045Z,8.40
2019-05-01T03:38:55.132Z,8.40
2019-05-01T03:41:42.981Z,8.30
2019-05-01T03:44:31.053Z,8.30
2019-05-01T03:47:18.906Z,8.30
2019-05-01T03:50:06.973Z,8.30
2019-05-01T03:52:54.867Z,8.20
2019-05-01T03:55:42.745Z,8.20
2019-05-01T03:58:30.847Z,8.20
2019-05-01T04:01:38.009Z,8.20
2019-05-01T04:04:27.991Z,8.20
2019-05-01T04:07:15.831Z,8.20
2019-05-01T04:10:03.879Z,8.10
2019-05-01T04:12:51.712Z,8.10
2019-05-01T04:15:39.560Z,8.00
2019-05-01T04:18:28.187Z,8.00
2019-05-01T04:21:16.251Z,8.10
2019-05-01T04:24:04.107Z,8.10
2019-05-01T04:26:51.952Z,8.10
2019-05-01T04:38:40.425Z,8.00
2019-05-01T04:41:21.499Z,8.10
2019-05-01T04:44:03.020Z,8.10
2019-05-01T04:46:43.615Z,8.10
2019-05-01T04:49:23.956Z,8.10
2019-05-01T04:52:04.591Z,8.10
2019-05-01T04:54:45.138Z,8.20
2019-05-01T04:57:25.715Z,8.20
2019-05-01T05:03:10.595Z,8.20
2019-05-01T05:05:51.565Z,8.20
2019-05-01T05:08:32.103Z,8.20
2019-05-01T05:13:54.687Z,8.20
2019-05-01T05:19:17.853Z,8.30
2019-05-01T05:24:48.011Z,8.40
2019-05-01T05:30:18.407Z,8.50
2019-05-01T05:32:58.807Z,8.60
2019-05-01T06:01:24.521Z,9.30
2019-05-01T06:04:24.730Z,9.40
2019-05-01T06:07:10.923Z,9.50
2019-05-01T06:10:13.807Z,9.60
2019-05-01T06:16:28.043Z,9.80
2019-05-01T06:22:28.797Z,10.00
2019-05-01T06:25:22.623Z,10.10
2019-05-01T06:27:57.943Z,10.20
2019-05-01T06:30:42.050Z,10.30
2019-05-01T06:33:21.169Z,10.40
2019-05-01T06:36:01.815Z,10.50
2019-05-01T06:38:43.279Z,10.60
2019-05-01T06:41:23.603Z,10.70
2019-05-01T06:44:26.531Z,10.80
2019-05-01T06:47:26.031Z,10.90
2019-05-01T06:50:25.540Z,11.00
2019-05-01T06:53:06.552Z,11.10
2019-05-01T06:55:47.683Z,11.20
2019-05-01T06:58:28.545Z,11.30
2019-05-01T07:01:09.219Z,11.30
2019-05-01T07:04:03.255Z,11.40
2019-05-01T07:06:33.047Z,11.60
2019-05-01T07:09:27.099Z,11.80
2019-05-01T07:11:58.658Z,12.30
2019-05-01T07:14:39.967Z,12.70
2019-05-01T07:17:20.647Z,12.80
2019-05-01T07:22:57.591Z,12.70
2019-05-01T07:25:39.531Z,12.70
2019-05-01T07:28:21.022Z,12.80
2019-05-01T07:31:08.134Z,12.90
2019-05-01T07:33:51.295Z,13.50
2019-05-01T07:36:32.162Z,14.10
2019-05-01T07:39:14.595Z,14.50
2019-05-01T07:41:57.266Z,14.80
2019-05-01T07:47:45.351Z,14.90
2019-05-01T07:50:31.533Z,14.70
2019-05-01T07:53:08.435Z,14.50
2019-05-01T07:55:52.701Z,14.40
2019-05-01T07:58:32.182Z,14.40
2019-05-01T08:04:35.180Z,14.20
2019-05-01T08:07:02.592Z,14.20
2019-05-01T08:09:45.884Z,14.30
2019-05-01T08:12:25.840Z,14.30
2019-05-01T08:18:11.343Z,14.40
2019-05-01T08:24:00.516Z,14.60
2019-05-01T08:26:44.161Z,14.70
2019-05-01T08:35:31.677Z,14.90
2019-05-01T08:38:12.129Z,15.00
2019-05-01T08:40:55.534Z,15.10
2019-05-01T08:43:36.074Z,15.20
2019-05-01T08:46:36.070Z,15.40
2019-05-01T08:49:23.690Z,15.50
2019-05-01T08:52:09.654Z,15.70
2019-05-01T08:54:46.990Z,15.80
2019-05-01T08:57:29.318Z,15.90
2019-05-01T09:00:10.750Z,16.00
2019-05-01T09:02:51.058Z,16.00
2019-05-01T09:05:33.932Z,16.10
2019-05-01T09:08:14.315Z,16.30
2019-05-01T09:13:41.416Z,16.60
2019-05-01T09:19:07.906Z,16.90
2019-05-01T09:24:33.959Z,17.00
2019-05-01T09:32:54.481Z,17.50
2019-05-01T09:35:40.298Z,17.50
2019-05-01T09:43:57.144Z,18.10
2019-05-01T09:46:38.198Z,18.20
2019-05-01T09:49:19.548Z,18.30
2019-05-01T09:52:25.339Z,18.40
2019-05-01T09:57:59.155Z,18.90
2019-05-01T10:03:28.882Z,19.10
2019-05-01T10:06:12.758Z,19.40
2019-05-01T10:08:52.715Z,19.60
2019-05-01T10:11:36.023Z,19.80
2019-05-01T10:14:15.826Z,19.90
2019-05-01T10:16:56.734Z,20.20
2019-05-01T10:19:37.634Z,20.40
2019-05-01T10:22:18.283Z,20.50
2019-05-01T10:24:58.766Z,20.60
2019-05-01T10:27:41.603Z,20.60
2019-05-01T10:30:44.647Z,20.70
2019-05-01T10:33:29.060Z,20.80
2019-05-01T10:36:18.856Z,20.80
2019-05-01T10:38:57.614Z,21.00
2019-05-01T10:41:41.021Z,21.10
2019-05-01T10:44:20.763Z,21.30
2019-05-01T10:47:02.083Z,21.40
2019-05-01T10:49:42.699Z,21.50
2019-05-01T10:52:23.807Z,21.60
2019-05-01T10:55:04.287Z,21.70
2019-05-01T10:57:45.093Z,21.80
2019-05-01T11:00:26.078Z,22.00
2019-05-01T11:03:07.331Z,22.10
2019-05-01T11:05:55.763Z,22.20
2019-05-01T11:08:30.903Z,22.20
2019-05-01T11:11:11.491Z,22.20
2019-05-01T11:13:52.483Z,22.30
2019-05-01T11:16:33.059Z,22.40
2019-05-01T11:19:13.457Z,22.60
2019-05-01T11:21:54.099Z,22.70
2019-05-01T11:24:35.310Z,22.90
2019-05-01T11:27:16.513Z,23.00
2019-05-01T11:29:58.279Z,23.10
2019-05-01T11:38:57.519Z,23.20
2019-05-01T11:41:44.774Z,23.10
2019-05-01T11:44:26.133Z,23.00
2019-05-01T11:47:07.280Z,23.00
2019-05-01T11:52:34.287Z,22.80
2019-05-01T11:55:14.927Z,22.90
2019-05-01T11:57:55.808Z,22.90
2019-05-01T12:00:36.562Z,23.00
2019-05-01T12:03:17.115Z,23.10
2019-05-01T12:05:57.975Z,23.00
2019-05-01T12:08:38.484Z,23.30
2019-05-01T12:11:20.921Z,23.80
2019-05-01T12:14:01.798Z,24.20
2019-05-01T12:17:01.497Z,24.60
2019-05-01T12:19:42.856Z,24.80
2019-05-01T12:22:23.543Z,25.10
2019-05-01T12:25:04.003Z,25.20
2019-05-01T12:27:44.691Z,25.30
2019-05-01T12:30:25.339Z,25.60
2019-05-01T12:33:05.955Z,25.70
2019-05-01T12:35:49.103Z,25.80
2019-05-01T12:38:29.684Z,26.00
2019-05-01T12:44:12.247Z,26.30
2019-05-01T12:49:35.020Z,26.50
2019-05-01T12:52:19.207Z,26.70
2019-05-01T12:55:05.274Z,26.80
2019-05-01T13:00:31.640Z,26.80
2019-05-01T13:03:13.135Z,26.70
2019-05-01T13:08:39.487Z,26.70
2019-05-01T13:14:02.866Z,27.20
2019-05-01T13:19:26.199Z,27.30
2019-05-01T13:46:58.535Z,27.50
2019-05-01T13:49:39.560Z,27.20
2019-05-01T14:03:41.716Z,27.40
2019-05-01T14:06:22.211Z,27.60
2019-05-01T14:09:04.692Z,27.80
2019-05-01T14:11:48.423Z,27.90
2019-05-01T14:14:29.039Z,28.00
2019-05-01T14:17:09.561Z,27.90
2019-05-01T14:20:09.778Z,27.90
2019-05-01T14:23:10.062Z,27.90
2019-05-01T14:26:09.671Z,28.10
2019-05-01T14:28:51.231Z,28.10
2019-05-01T14:31:32.598Z,27.90
2019-05-01T14:34:13.243Z,27.60
2019-05-01T14:36:53.747Z,27.50
2019-05-01T14:39:34.816Z,27.50
2019-05-01T14:42:15.679Z,27.50
2019-05-01T14:44:56.378Z,27.50
2019-05-01T14:47:36.802Z,27.60
2019-05-01T14:50:17.682Z,27.80
2019-05-01T14:52:58.387Z,27.70
2019-05-01T14:55:39.594Z,27.80
2019-05-01T14:58:20.659Z,27.90
2019-05-01T15:01:00.995Z,27.90
2019-05-01T15:03:41.295Z,27.80
2019-05-01T15:06:22.411Z,27.80
2019-05-01T15:09:01.627Z,27.60
2019-05-01T15:11:49.974Z,27.50
2019-05-01T15:14:56.927Z,27.60
2019-05-01T15:18:00.535Z,27.80
2019-05-01T15:20:48.614Z,27.80
2019-05-01T15:23:36.737Z,27.60
2019-05-01T15:26:24.574Z,27.60
2019-05-01T15:29:12.727Z,27.50
2019-05-01T15:32:07.451Z,27.70
2019-05-01T15:34:48.503Z,27.70
2019-05-01T15:37:29.170Z,27.70
2019-05-01T15:43:35.656Z,27.60
2019-05-01T15:46:16.772Z,27.40
2019-05-01T15:48:57.831Z,27.20
2019-05-01T15:54:21.669Z,26.90
2019-05-01T15:57:02.311Z,27.00
2019-05-01T15:59:43.547Z,27.00
2019-05-01T16:02:23.942Z,27.00
2019-05-01T16:05:04.634Z,27.00
2019-05-01T16:07:45.551Z,27.00
2019-05-01T16:10:30.310Z,27.10
2019-05-01T16:13:11.507Z,27.20
2019-05-01T16:15:52.570Z,27.10
2019-05-01T16:18:33.710Z,27.10
2019-05-01T16:21:14.120Z,26.90
2019-05-01T16:23:54.973Z,26.80
2019-05-01T16:26:35.246Z,26.60
2019-05-01T16:29:16.307Z,26.30
2019-05-01T16:31:57.310Z,26.00
2019-05-01T16:34:38.447Z,25.80
2019-05-01T16:42:58.782Z,25.10
2019-05-01T16:45:39.581Z,24.80
2019-05-01T16:51:02.229Z,24.30
2019-05-01T16:53:43.434Z,23.90
2019-05-01T16:56:27.139Z,23.70
2019-05-01T16:59:08.275Z,23.40
2019-05-01T17:01:52.436Z,23.10
2019-05-01T17:04:36.520Z,22.80
2019-05-01T17:15:46.368Z,22.30
2019-05-01T17:23:59.872Z,21.80
2019-05-01T17:26:40.259Z,21.70
2019-05-01T17:29:21.707Z,21.60
2019-05-01T17:32:05.344Z,21.50
2019-05-01T17:34:46.580Z,21.30
2019-05-01T17:37:27.298Z,21.30
2019-05-01T17:40:07.967Z,21.20
2019-05-01T17:42:47.174Z,21.10
2019-05-01T17:45:36.729Z,21.00
2019-05-01T17:48:28.991Z,20.90
2019-05-01T17:51:15.178Z,20.80
2019-05-01T17:54:03.302Z,20.70
2019-05-01T17:56:53.920Z,20.60
2019-05-01T17:59:41.025Z,20.50
2019-05-01T18:02:47.968Z,20.40
2019-05-01T18:08:39.914Z,20.30
2019-05-01T18:11:27.762Z,20.20
2019-05-01T18:14:15.836Z,20.00
2019-05-01T18:17:03.704Z,19.90
2019-05-01T18:19:51.779Z,19.80
2019-05-01T18:22:58.979Z,19.60
2019-05-01T18:26:04.701Z,19.40
2019-05-01T18:28:55.622Z,19.30
2019-05-01T18:31:43.774Z,19.20
2019-05-01T18:34:33.750Z,18.90
2019-05-01T18:43:19.041Z,18.50
2019-05-01T18:48:41.419Z,18.20
2019-05-01T18:51:22.663Z,18.10
2019-05-01T18:54:03.067Z,18.00
2019-05-01T18:56:43.751Z,17.80
2019-05-01T18:59:24.538Z,17.70
2019-05-01T19:02:05.983Z,17.60
2019-05-01T19:04:46.894Z,17.50
2019-05-01T19:07:27.159Z,17.40
2019-05-01T19:10:08.015Z,17.30
2019-05-01T19:12:48.321Z,17.20
2019-05-01T19:15:29.021Z,17.10
2019-05-01T19:18:09.821Z,17.00
2019-05-01T19:20:59.295Z,17.00
2019-05-01T19:23:33.375Z,16.90
2019-05-01T19:26:15.850Z,16.80
2019-05-01T19:28:56.695Z,16.70
2019-05-01T19:31:37.559Z,16.60
2019-05-01T19:34:18.807Z,16.50
2019-05-01T19:36:59.670Z,16.40
2019-05-01T19:39:43.804Z,16.30
2019-05-01T19:42:23.687Z,16.20
2019-05-01T19:45:05.230Z,16.10
2019-05-01T19:47:46.467Z,16.10
2019-05-01T19:50:27.439Z,16.00
2019-05-01T19:53:10.117Z,15.90
2019-05-01T19:55:50.567Z,15.80
2019-05-01T19:58:31.454Z,15.90
2019-05-01T20:01:12.105Z,15.90
2019-05-01T20:06:39.964Z,15.80
2019-05-01T20:09:22.522Z,15.70
2019-05-01T20:12:03.197Z,15.60
2019-05-01T20:14:43.628Z,15.50
2019-05-01T20:17:24.285Z,15.40
2019-05-01T20:20:05.231Z,15.30
2019-05-01T20:22:48.169Z,15.20
2019-05-01T20:25:28.303Z,15.10
2019-05-01T20:28:09.146Z,15.00
2019-05-01T20:30:50.154Z,15.00
2019-05-01T20:36:16.834Z,14.90
2019-05-01T20:38:57.570Z,14.80
2019-05-01T20:41:38.270Z,14.70
2019-05-01T21:07:29.771Z,14.30
2019-05-01T21:10:24.171Z,14.30
2019-05-01T21:12:54.775Z,14.30
2019-05-01T21:15:35.317Z,14.30
2019-05-01T21:18:16.129Z,14.40
2019-05-01T21:20:57.031Z,14.40
2019-05-01T21:23:38.275Z,14.50
2019-05-01T21:26:19.087Z,14.60
2019-05-01T21:28:59.414Z,14.60
2019-05-01T21:31:39.726Z,14.70
2019-05-01T21:34:20.652Z,14.80
2019-05-01T21:37:01.303Z,14.80
2019-05-01T21:39:43.617Z,14.90
2019-05-01T21:42:24.669Z,14.90
2019-05-01T21:45:05.135Z,14.90
2019-05-01T21:47:45.951Z,14.90
2019-05-01T21:50:26.733Z,14.90
2019-05-01T21:53:07.227Z,14.90
2019-05-01T21:55:47.865Z,14.90
2019-05-01T21:58:30.202Z,14.90
2019-05-01T22:01:11.714Z,14.90
2019-05-01T22:03:57.094Z,14.90
2019-05-01T22:06:36.110Z,14.80
2019-05-01T22:09:21.323Z,14.70
2019-05-01T22:12:02.357Z,14.60
2019-05-01T22:15:05.809Z,14.50
2019-05-01T22:18:03.234Z,14.40
2019-05-01T22:23:57.391Z,14.30
2019-05-01T22:26:41.276Z,14.20
2019-05-01T22:29:27.335Z,14.10
2019-05-01T22:32:27.742Z,14.00
2019-05-01T22:35:14.154Z,14.00
2019-05-01T22:57:44.184Z,14.20
2019-05-01T23:03:16.955Z,14.20
2019-05-01T23:06:01.892Z,14.20
2019-05-01T23:08:40.991Z,14.20
2019-05-01T23:11:23.690Z,14.20
2019-05-01T23:14:04.387Z,14.20
2019-05-01T23:19:45.659Z,13.90
2019-05-01T23:22:26.189Z,13.80
2019-05-01T23:25:06.798Z,13.60
2019-05-01T23:27:47.152Z,13.50
2019-05-01T23:30:27.847Z,13.40
2019-05-01T23:33:08.707Z,13.40
2019-05-01T23:35:49.232Z,13.30
2019-05-01T23:38:29.710Z,13.30
2019-05-01T23:41:11.000Z,13.30
2019-05-01T23:43:51.758Z,13.30
2019-05-01T23:46:32.217Z,13.20
2019-05-01T23:49:13.807Z,13.10
2019-05-01T23:51:54.212Z,13.00
2019-05-01T23:54:34.718Z,12.90
2019-05-01T23:57:18.836Z,12.80
2019-05-01T23:59:59.120Z,12.70
